createdAt,value
2017-10-11T00:02:14.042Z,8.10
2017-10-11T00:04:40.369Z,13.77
2017-10-11T00:07:06.720Z,14.87
2017-10-11T00:09:33.018Z,10.60
2017-10-11T00:12:00.112Z,12.33
2017-10-11T00:14:26.423Z,10.80
2017-10-11T00:16:53.501Z,9.87
2017-10-11T00:19:19.838Z,11.23
2017-10-11T00:21:46.939Z,11.07
2017-10-11T00:24:13.261Z,11.13
2017-10-11T00:26:42.458Z,10.30
2017-10-11T00:29:08.806Z,10.70
2017-10-11T00:31:35.112Z,10.80
2017-10-11T00:34:02.210Z,9.80
2017-10-11T00:36:28.531Z,12.20
2017-10-11T00:38:54.848Z,9.73
2017-10-11T00:41:21.880Z,8.83
2017-10-11T00:43:48.274Z,10.47
2017-10-11T00:46:14.613Z,9.80
2017-10-11T00:48:40.938Z,11.60
2017-10-11T00:51:07.359Z,12.53
2017-10-11T00:53:33.698Z,9.77
2017-10-11T00:56:00.863Z,8.93
2017-10-11T00:58:27.786Z,8.00
2017-10-11T01:00:54.199Z,10.50
2017-10-11T01:03:20.730Z,8.07
2017-10-11T01:05:47.079Z,7.93
2017-10-11T01:08:13.469Z,8.30
2017-10-11T01:10:39.845Z,7.37
2017-10-11T01:13:06.023Z,8.13
2017-10-11T01:15:32.187Z,8.80
2017-10-11T01:17:58.337Z,7.93
2017-10-11T01:20:25.193Z,9.40
2017-10-11T01:22:51.416Z,12.33
2017-10-11T01:25:18.316Z,8.67
2017-10-11T01:27:44.470Z,8.43
2017-10-11T01:30:14.485Z,6.93
2017-10-11T01:32:40.625Z,7.10
2017-10-11T01:35:07.281Z,7.57
2017-10-11T01:37:33.674Z,8.20
2017-10-11T01:40:00.822Z,7.83
2017-10-11T01:42:27.886Z,7.33
2017-10-11T01:44:56.178Z,7.43
2017-10-11T01:47:22.534Z,9.20
2017-10-11T01:49:49.477Z,7.30
2017-10-11T01:52:15.789Z,9.17
2017-10-11T01:54:42.113Z,6.90
2017-10-11T01:57:10.821Z,6.40
2017-10-11T01:59:37.145Z,5.00
2017-10-11T02:02:03.497Z,6.23
2017-10-11T02:04:29.833Z,6.13
2017-10-11T02:06:56.207Z,7.13
2017-10-11T02:09:22.627Z,5.67
2017-10-11T02:11:59.259Z,5.60
2017-10-11T02:14:25.625Z,7.07
2017-10-11T02:16:51.971Z,4.40
2017-10-11T02:19:18.320Z,7.13
2017-10-11T02:21:44.710Z,4.80
2017-10-11T02:24:11.052Z,5.20
2017-10-11T02:26:37.400Z,5.47
2017-10-11T02:29:03.745Z,4.87
2017-10-11T02:31:30.081Z,6.00
2017-10-11T02:33:56.464Z,5.73
2017-10-11T02:36:22.814Z,6.43
2017-10-11T02:38:49.289Z,5.30
2017-10-11T02:41:15.661Z,5.30
2017-10-11T02:43:42.010Z,7.03
2017-10-11T02:46:09.168Z,7.63
2017-10-11T02:48:35.556Z,6.77
2017-10-11T02:51:01.882Z,5.80
2017-10-11T02:53:28.208Z,5.40
2017-10-11T02:55:54.620Z,7.03
2017-10-11T02:58:20.981Z,7.10
2017-10-11T03:00:47.350Z,7.10
2017-10-11T03:03:13.693Z,5.20
2017-10-11T03:05:40.809Z,6.67
2017-10-11T03:08:07.161Z,6.10
2017-10-11T03:10:35.766Z,6.20
2017-10-11T03:13:04.111Z,5.83
2017-10-11T03:15:30.468Z,6.40
2017-10-11T03:17:56.790Z,6.13
2017-10-11T03:20:23.387Z,10.00
2017-10-11T03:22:49.725Z,5.80
2017-10-11T03:25:16.078Z,7.97
2017-10-11T03:27:42.410Z,5.53
2017-10-11T03:30:08.747Z,6.03
2017-10-11T03:32:35.098Z,7.20
2017-10-11T03:35:02.164Z,8.10
2017-10-11T03:37:28.509Z,5.60
2017-10-11T03:39:55.618Z,5.20
2017-10-11T03:42:21.951Z,7.37
2017-10-11T03:44:48.385Z,6.30
2017-10-11T03:47:14.735Z,6.97
2017-10-11T03:49:41.217Z,5.97
2017-10-11T03:52:07.556Z,5.33
2017-10-11T03:54:36.799Z,5.30
2017-10-11T03:57:03.117Z,6.33
2017-10-11T03:59:29.426Z,6.50
2017-10-11T04:01:55.753Z,5.50
2017-10-11T04:04:22.151Z,8.60
2017-10-11T04:06:48.473Z,7.73
2017-10-11T04:09:14.849Z,6.23
2017-10-11T04:11:41.223Z,5.63
2017-10-11T04:14:07.571Z,6.80
2017-10-11T04:16:33.907Z,6.63
2017-10-11T04:19:00.277Z,6.37
2017-10-11T04:21:26.734Z,7.27
2017-10-11T04:23:54.382Z,7.30
2017-10-11T04:26:21.512Z,5.97
2017-10-11T04:28:47.863Z,5.70
2017-10-11T04:31:14.225Z,8.73
2017-10-11T04:33:40.582Z,6.73
2017-10-11T04:36:06.986Z,6.77
2017-10-11T04:38:34.073Z,7.77
2017-10-11T04:41:00.413Z,6.07
2017-10-11T04:43:30.022Z,5.03
2017-10-11T04:45:57.133Z,6.40
2017-10-11T04:48:23.493Z,6.70
2017-10-11T04:50:50.644Z,8.93
2017-10-11T04:53:16.975Z,12.23
2017-10-11T04:55:43.360Z,7.20
2017-10-11T04:58:09.701Z,7.90
2017-10-11T05:00:36.032Z,7.20
2017-10-11T05:03:03.102Z,10.00
2017-10-11T05:05:29.440Z,7.20
2017-10-11T05:07:55.785Z,7.40
2017-10-11T05:10:24.759Z,8.97
2017-10-11T05:12:51.107Z,12.00
2017-10-11T05:15:17.468Z,7.57
2017-10-11T05:17:43.793Z,6.27
2017-10-11T05:20:10.151Z,8.07
2017-10-11T05:22:36.535Z,6.97
2017-10-11T05:25:02.873Z,6.37
2017-10-11T05:27:29.189Z,10.13
2017-10-11T05:29:55.508Z,7.67
2017-10-11T05:32:22.581Z,7.00
2017-10-11T05:34:49.645Z,8.40
2017-10-11T05:37:16.709Z,7.77
2017-10-11T05:39:43.857Z,7.70
2017-10-11T05:42:17.970Z,9.53
2017-10-11T05:44:50.133Z,8.27
2017-10-11T05:47:16.460Z,6.50
2017-10-11T05:49:43.561Z,6.43
2017-10-11T05:52:09.883Z,7.80
2017-10-11T05:54:36.929Z,10.47
2017-10-11T05:57:03.259Z,7.30
2017-10-11T05:59:29.572Z,9.23
2017-10-11T06:01:55.913Z,6.87
2017-10-11T06:04:22.225Z,6.40
2017-10-11T06:06:48.532Z,10.30
2017-10-11T06:09:14.885Z,6.20
2017-10-11T06:11:41.216Z,7.33
2017-10-11T06:14:10.520Z,9.07
2017-10-11T06:16:38.402Z,10.53
2017-10-11T06:19:05.828Z,8.23
2017-10-11T06:21:32.936Z,7.53
2017-10-11T06:23:59.272Z,7.70
2017-10-11T06:26:25.570Z,7.70
2017-10-11T06:28:51.891Z,8.33
2017-10-11T06:31:18.203Z,8.13
2017-10-11T06:33:46.292Z,9.50
2017-10-11T06:36:13.362Z,7.13
2017-10-11T06:38:41.621Z,6.10
2017-10-11T06:41:08.747Z,8.20
2017-10-11T06:43:35.094Z,8.50
2017-10-11T06:46:01.665Z,8.33
2017-10-11T06:48:27.992Z,8.00
2017-10-11T06:50:54.402Z,8.63
2017-10-11T06:53:20.802Z,7.37
2017-10-11T06:55:47.170Z,8.40
2017-10-11T06:58:13.498Z,8.43
2017-10-11T07:00:39.829Z,6.97
2017-10-11T07:03:08.767Z,7.60
2017-10-11T07:05:35.186Z,8.27
2017-10-11T07:08:01.613Z,7.50
2017-10-11T07:10:27.945Z,7.80
2017-10-11T07:12:55.890Z,8.40
2017-10-11T07:15:22.207Z,8.50
2017-10-11T07:17:48.862Z,6.77
2017-10-11T07:20:15.189Z,7.67
2017-10-11T07:22:41.598Z,6.03
2017-10-11T07:25:07.917Z,6.67
2017-10-11T07:27:34.263Z,8.80
2017-10-11T07:30:00.591Z,8.40
2017-10-11T07:32:28.921Z,6.80
2017-10-11T07:34:55.230Z,6.77
2017-10-11T07:37:21.533Z,6.63
2017-10-11T07:39:48.613Z,8.17
2017-10-11T07:42:14.944Z,5.80
2017-10-11T07:44:42.026Z,5.67
2017-10-11T07:47:08.348Z,5.60
2017-10-11T07:49:34.713Z,10.53
2017-10-11T07:52:01.074Z,7.37
2017-10-11T07:54:27.397Z,6.10
2017-10-11T07:56:53.793Z,7.13
2017-10-11T07:59:20.155Z,6.30
2017-10-11T08:01:46.468Z,4.77
2017-10-11T08:04:13.562Z,7.73
2017-10-11T08:06:43.221Z,5.00
2017-10-11T08:09:10.301Z,5.77
2017-10-11T08:11:36.634Z,7.10
2017-10-11T08:14:03.001Z,5.30
2017-10-11T08:16:30.095Z,5.13
2017-10-11T08:18:57.166Z,5.53
2017-10-11T08:21:29.663Z,4.80
2017-10-11T08:23:55.793Z,4.67
2017-10-11T08:26:21.960Z,5.97
2017-10-11T08:28:48.104Z,5.07
2017-10-11T08:31:14.273Z,6.17
2017-10-11T08:33:40.390Z,5.07
2017-10-11T08:36:07.345Z,5.10
2017-10-11T08:38:37.919Z,5.33
2017-10-11T08:41:04.822Z,4.60
2017-10-11T08:43:30.953Z,4.40
2017-10-11T08:45:57.842Z,5.40
2017-10-11T08:48:23.972Z,5.17
2017-10-11T08:50:50.127Z,5.97
2017-10-11T08:53:16.260Z,4.53
2017-10-11T08:55:46.129Z,4.37
2017-10-11T08:58:12.271Z,4.70
2017-10-11T09:00:39.165Z,4.47
2017-10-11T09:03:06.065Z,5.30
2017-10-11T09:05:32.209Z,5.33
2017-10-11T09:07:59.099Z,4.90
2017-10-11T09:10:28.113Z,5.33
2017-10-11T09:12:56.468Z,6.20
2017-10-11T09:15:22.593Z,4.10
2017-10-11T09:17:49.489Z,4.53
2017-10-11T09:20:16.353Z,3.90
2017-10-11T09:22:43.217Z,8.20
2017-10-11T09:25:12.187Z,4.40
2017-10-11T09:27:41.321Z,5.10
2017-10-11T09:30:07.438Z,6.43
2017-10-11T09:32:33.579Z,4.20
2017-10-11T09:34:59.770Z,5.30
2017-10-11T09:37:26.652Z,4.37
2017-10-11T09:39:52.810Z,6.47
2017-10-11T09:42:18.945Z,3.87
2017-10-11T09:44:51.228Z,4.80
2017-10-11T09:47:18.090Z,3.60
2017-10-11T09:49:44.953Z,3.90
2017-10-11T09:52:11.096Z,4.37
2017-10-11T09:54:37.244Z,5.23
2017-10-11T09:57:03.376Z,4.83
2017-10-11T09:59:29.493Z,4.63
2017-10-11T10:01:55.636Z,8.53
2017-10-11T10:04:25.030Z,4.27
2017-10-11T10:06:51.149Z,6.77
2017-10-11T10:09:17.273Z,3.93
2017-10-11T10:11:43.402Z,4.53
2017-10-11T10:14:10.338Z,6.47
2017-10-11T10:16:36.492Z,4.33
2017-10-11T10:19:03.348Z,3.37
2017-10-11T10:21:29.546Z,4.50
2017-10-11T10:24:00.038Z,4.30
2017-10-11T10:26:26.183Z,4.40
2017-10-11T10:28:53.038Z,5.03
2017-10-11T10:31:19.169Z,4.40
2017-10-11T10:33:45.301Z,4.00
2017-10-11T10:36:12.177Z,4.03
2017-10-11T10:38:38.307Z,4.23
2017-10-11T10:41:04.429Z,5.20
2017-10-11T10:43:35.148Z,3.53
2017-10-11T10:46:01.274Z,3.93
2017-10-11T10:48:27.416Z,3.93
2017-10-11T10:50:54.282Z,4.10
2017-10-11T10:53:21.160Z,5.20
2017-10-11T10:55:48.038Z,6.60
2017-10-11T10:58:14.901Z,4.53
2017-10-11T11:00:41.026Z,7.53
2017-10-11T11:03:09.731Z,4.97
2017-10-11T11:05:36.001Z,4.60
2017-10-11T11:08:02.166Z,4.80
2017-10-11T11:10:29.112Z,4.80
2017-10-11T11:12:56.047Z,7.07
2017-10-11T11:15:22.175Z,4.37
2017-10-11T11:17:48.309Z,5.10
2017-10-11T11:20:19.315Z,4.20
2017-10-11T11:22:45.445Z,5.27
2017-10-11T11:25:11.586Z,4.27
2017-10-11T11:27:37.756Z,5.87
2017-10-11T11:30:03.882Z,8.33
2017-10-11T11:32:30.006Z,5.33
2017-10-11T11:34:56.138Z,5.10
2017-10-11T11:37:23.150Z,10.13
2017-10-11T11:39:53.364Z,4.93
2017-10-11T11:42:19.489Z,4.43
2017-10-11T11:44:45.598Z,5.10
2017-10-11T11:47:11.732Z,4.97
2017-10-11T11:49:37.847Z,7.47
2017-10-11T11:52:04.782Z,4.53
2017-10-11T11:54:30.927Z,4.90
2017-10-11T11:56:57.089Z,6.43
2017-10-11T11:59:24.881Z,5.17
2017-10-11T12:01:51.093Z,7.63
2017-10-11T12:04:17.217Z,4.80
2017-10-11T12:06:43.391Z,5.07
2017-10-11T12:09:09.513Z,5.00
2017-10-11T12:11:35.644Z,4.97
2017-10-11T12:14:01.773Z,6.30
2017-10-11T12:16:31.215Z,3.70
2017-10-11T12:18:57.370Z,5.10
2017-10-11T12:21:23.489Z,3.60
2017-10-11T12:23:49.641Z,4.20
2017-10-11T12:26:16.593Z,4.40
2017-10-11T12:28:42.717Z,4.37
2017-10-11T12:31:08.919Z,4.27
2017-10-11T12:33:35.835Z,4.70
2017-10-11T12:36:05.953Z,4.20
2017-10-11T12:38:32.123Z,6.20
2017-10-11T12:40:58.246Z,5.10
2017-10-11T12:43:24.404Z,4.10
2017-10-11T12:45:50.540Z,4.70
2017-10-11T12:48:16.648Z,4.93
2017-10-11T12:50:43.568Z,4.73
2017-10-11T12:53:09.711Z,5.20
2017-10-11T12:58:08.752Z,5.27
2017-10-11T13:00:34.957Z,5.13
2017-10-11T13:03:01.175Z,4.67
2017-10-11T13:05:27.407Z,4.70
2017-10-11T13:07:53.541Z,4.10
2017-10-11T13:10:19.657Z,8.23
2017-10-11T13:13:05.989Z,4.87
2017-10-11T13:15:33.576Z,4.60
2017-10-11T13:18:01.633Z,5.30
2017-10-11T13:20:27.957Z,4.17
2017-10-11T13:22:54.280Z,6.73
2017-10-11T13:25:20.586Z,5.63
2017-10-11T13:27:46.897Z,5.17
2017-10-11T13:30:15.786Z,5.03
2017-10-11T13:32:42.209Z,4.60
2017-10-11T13:35:09.343Z,4.33
2017-10-11T13:37:35.660Z,5.97
2017-10-11T13:40:02.056Z,5.40
2017-10-11T13:42:28.497Z,4.57
2017-10-11T13:44:54.987Z,5.73
2017-10-11T13:47:21.376Z,4.63
2017-10-11T13:49:47.707Z,6.33
2017-10-11T13:52:14.074Z,4.50
2017-10-11T13:54:40.460Z,6.27
2017-10-11T13:57:06.819Z,6.70
2017-10-11T13:59:33.237Z,4.70
2017-10-11T14:01:59.570Z,5.10
2017-10-11T14:04:25.877Z,4.93
2017-10-11T14:06:52.224Z,5.03
2017-10-11T14:09:18.760Z,5.53
2017-10-11T14:11:54.167Z,5.83
2017-10-11T14:14:23.488Z,6.10
2017-10-11T14:16:50.557Z,6.00
2017-10-11T14:19:16.897Z,3.97
2017-10-11T14:21:44.013Z,5.90
2017-10-11T14:24:10.379Z,4.60
2017-10-11T14:26:37.516Z,3.77
2017-10-11T14:29:04.017Z,4.83
2017-10-11T14:31:30.437Z,5.07
2017-10-11T14:33:57.568Z,4.70
2017-10-11T14:36:24.616Z,6.20
2017-10-11T14:38:50.963Z,4.80
2017-10-11T14:41:18.018Z,4.50
2017-10-11T14:43:44.416Z,4.60
2017-10-11T14:46:10.779Z,5.77
2017-10-11T14:48:37.137Z,5.33
2017-10-11T14:51:04.459Z,4.27
2017-10-11T14:53:30.770Z,4.33
2017-10-11T14:55:57.090Z,4.90
2017-10-11T14:58:24.142Z,5.10
2017-10-11T15:00:51.269Z,6.43
2017-10-11T15:03:17.577Z,6.63
2017-10-11T15:05:44.696Z,4.43
2017-10-11T15:08:11.018Z,6.70
2017-10-11T15:10:37.354Z,6.43
2017-10-11T15:13:03.736Z,6.63
2017-10-11T15:15:30.426Z,9.17
2017-10-11T15:17:57.162Z,6.80
2017-10-11T15:20:23.733Z,4.50
2017-10-11T15:22:50.087Z,4.40
2017-10-11T15:25:16.422Z,5.90
2017-10-11T15:27:42.797Z,4.40
2017-10-11T15:30:09.766Z,4.13
2017-10-11T15:32:36.142Z,5.03
2017-10-11T15:35:02.469Z,4.03
2017-10-11T15:37:28.786Z,4.57
2017-10-11T15:39:55.097Z,6.50
2017-10-11T15:42:22.197Z,5.13
2017-10-11T15:44:48.512Z,6.60
2017-10-11T15:47:14.866Z,7.00
2017-10-11T15:49:41.922Z,4.80
2017-10-11T15:52:08.224Z,4.87
2017-10-11T15:54:34.525Z,5.77
2017-10-11T15:57:00.859Z,6.00
2017-10-11T15:59:27.637Z,5.80
2017-10-11T16:01:54.018Z,8.27
2017-10-11T16:04:20.337Z,7.77
2017-10-11T16:06:49.694Z,10.13
2017-10-11T16:09:16.018Z,6.07
2017-10-11T16:11:43.598Z,4.60
2017-10-11T16:14:10.673Z,5.47
2017-10-11T16:16:37.736Z,5.27
2017-10-11T16:19:04.208Z,4.83
2017-10-11T16:21:30.558Z,4.87
2017-10-11T16:23:57.656Z,5.93
2017-10-11T16:26:24.341Z,7.63
2017-10-11T16:28:50.661Z,6.70
2017-10-11T16:31:16.981Z,5.80
2017-10-11T16:33:44.059Z,5.37
2017-10-11T16:36:14.190Z,8.93
2017-10-11T16:38:41.302Z,4.77
2017-10-11T16:41:07.790Z,5.03
2017-10-11T16:43:34.235Z,5.90
2017-10-11T16:46:00.597Z,4.97
2017-10-11T16:48:26.913Z,5.23
2017-10-11T16:50:53.262Z,5.60
2017-10-11T16:53:19.598Z,5.53
2017-10-11T16:55:46.030Z,6.80
2017-10-11T16:58:12.342Z,5.77
2017-10-11T17:00:38.684Z,4.77
2017-10-11T17:03:05.002Z,6.30
2017-10-11T17:05:32.070Z,5.00
2017-10-11T17:07:58.372Z,5.97
2017-10-11T17:10:24.682Z,6.60
2017-10-11T17:12:51.118Z,7.83
2017-10-11T17:15:17.473Z,4.87
2017-10-11T17:17:43.806Z,5.73
2017-10-11T17:20:10.864Z,5.90
2017-10-11T17:22:37.236Z,5.47
2017-10-11T17:25:04.526Z,5.80
2017-10-11T17:27:30.853Z,5.27
2017-10-11T17:30:00.566Z,5.33
2017-10-11T17:32:26.869Z,4.90
2017-10-11T17:34:53.333Z,6.10
2017-10-11T17:37:19.635Z,4.93
2017-10-11T17:39:45.969Z,5.23
2017-10-11T17:42:12.276Z,5.87
2017-10-11T17:44:39.644Z,5.00
2017-10-11T17:47:06.085Z,5.17
2017-10-11T17:49:36.290Z,5.00
2017-10-11T17:52:02.620Z,6.40
2017-10-11T17:54:28.959Z,5.10
2017-10-11T17:56:55.316Z,4.27
2017-10-11T17:59:21.652Z,5.20
2017-10-11T18:01:47.973Z,5.70
2017-10-11T18:04:15.581Z,4.53
2017-10-11T18:06:41.915Z,4.33
2017-10-11T18:09:08.267Z,4.70
2017-10-11T18:11:34.590Z,4.03
2017-10-11T18:14:00.964Z,4.17
2017-10-11T18:16:27.286Z,3.50
2017-10-11T18:18:54.372Z,3.77
2017-10-11T18:21:22.197Z,4.10
2017-10-11T18:23:48.605Z,3.70
2017-10-11T18:26:17.827Z,5.50
2017-10-11T18:28:44.205Z,3.93
2017-10-11T18:31:10.658Z,4.20
2017-10-11T18:33:37.005Z,4.57
2017-10-11T18:36:03.331Z,5.97
2017-10-11T18:38:29.779Z,4.80
2017-10-11T18:40:56.162Z,3.67
2017-10-11T18:43:22.534Z,5.97
2017-10-11T18:45:49.096Z,6.40
2017-10-11T18:48:15.627Z,3.60
2017-10-11T18:50:43.063Z,5.87
2017-10-11T18:53:09.381Z,3.20
2017-10-11T18:55:35.702Z,3.40
2017-10-11T18:58:02.033Z,3.30
2017-10-11T19:00:28.376Z,4.30
2017-10-11T19:02:54.728Z,3.10
2017-10-11T19:05:21.034Z,2.83
2017-10-11T19:07:47.362Z,4.27
2017-10-11T19:10:13.733Z,5.23
2017-10-11T19:12:40.167Z,3.47
2017-10-11T19:15:06.498Z,3.53
2017-10-11T19:17:32.824Z,4.40
2017-10-11T19:19:59.233Z,3.10
2017-10-11T19:22:25.648Z,3.40
2017-10-11T19:24:52.105Z,3.70
2017-10-11T19:27:18.421Z,3.43
2017-10-11T19:29:44.838Z,3.50
2017-10-11T19:32:11.969Z,2.97
2017-10-11T19:34:38.369Z,3.40
2017-10-11T19:37:05.442Z,3.90
2017-10-11T19:39:32.552Z,4.03
2017-10-11T19:41:59.021Z,3.70
2017-10-11T19:44:25.373Z,4.33
2017-10-11T19:46:51.693Z,3.87
2017-10-11T19:49:18.125Z,3.80
2017-10-11T19:51:45.193Z,3.40
2017-10-11T19:54:11.578Z,3.50
2017-10-11T19:56:37.897Z,4.63
2017-10-11T19:59:05.031Z,4.13
2017-10-11T20:01:31.456Z,4.10
2017-10-11T20:03:57.848Z,3.07
2017-10-11T20:06:24.223Z,3.37
2017-10-11T20:08:53.678Z,4.03
2017-10-11T20:11:19.996Z,2.90
2017-10-11T20:13:46.304Z,3.70
2017-10-11T20:16:12.642Z,3.40
2017-10-11T20:18:42.223Z,3.83
2017-10-11T20:21:08.679Z,5.13
2017-10-11T20:23:35.242Z,3.50
2017-10-11T20:26:01.665Z,2.90
2017-10-11T20:28:27.993Z,4.33
2017-10-11T20:30:55.073Z,4.07
2017-10-11T20:33:21.405Z,9.20
2017-10-11T20:35:47.817Z,3.73
2017-10-11T20:38:14.206Z,7.10
2017-10-11T20:40:40.574Z,4.80
2017-10-11T20:43:08.055Z,3.40
2017-10-11T20:45:35.177Z,3.30
2017-10-11T20:48:03.794Z,4.13
2017-10-11T20:50:30.619Z,3.50
2017-10-11T20:52:57.050Z,15.53
2017-10-11T20:55:23.358Z,4.87
2017-10-11T20:57:50.411Z,3.43
2017-10-11T21:00:16.971Z,3.23
2017-10-11T21:02:43.454Z,4.47
2017-10-11T21:05:22.376Z,6.83
2017-10-11T21:07:51.171Z,2.73
2017-10-11T21:10:17.493Z,6.13
2017-10-11T21:12:47.707Z,3.17
2017-10-11T21:15:14.016Z,3.37
2017-10-11T21:17:40.340Z,3.27
2017-10-11T21:20:07.420Z,3.33
2017-10-11T21:22:33.762Z,4.77
2017-10-11T21:25:00.289Z,3.37
2017-10-11T21:27:27.676Z,4.57
2017-10-11T21:29:59.924Z,3.37
2017-10-11T21:32:35.972Z,3.07
2017-10-11T21:35:02.115Z,3.87
2017-10-11T21:37:28.418Z,2.60
2017-10-11T21:39:54.544Z,3.60
2017-10-11T21:42:20.672Z,3.27
2017-10-11T21:44:46.802Z,3.43
2017-10-11T21:47:12.944Z,5.10
2017-10-11T21:49:39.159Z,5.47
2017-10-11T21:52:05.510Z,3.47
2017-10-11T21:54:39.696Z,4.67
2017-10-11T21:57:06.108Z,3.97
2017-10-11T21:59:38.148Z,3.70
2017-10-11T22:02:09.714Z,3.40
2017-10-11T22:04:37.102Z,4.37
2017-10-11T22:07:03.233Z,2.37
2017-10-11T22:09:29.357Z,2.57
2017-10-11T22:11:55.486Z,2.90
2017-10-11T22:14:21.598Z,3.30
2017-10-11T22:16:47.726Z,2.63
2017-10-11T22:19:13.857Z,3.40
2017-10-11T22:21:40.787Z,4.80
2017-10-11T22:24:06.933Z,3.37
2017-10-11T22:26:33.046Z,2.70
2017-10-11T22:29:00.065Z,5.63
2017-10-11T22:31:26.220Z,2.40
2017-10-11T22:33:58.810Z,4.67
2017-10-11T22:36:24.973Z,3.70
2017-10-11T22:38:51.101Z,2.40
2017-10-11T22:41:17.226Z,4.03
2017-10-11T22:43:44.112Z,2.57
2017-10-11T22:46:10.241Z,3.40
2017-10-11T22:48:38.670Z,2.60
2017-10-11T22:51:07.561Z,3.03
2017-10-11T22:53:34.475Z,2.40
2017-10-11T22:56:00.581Z,2.23
2017-10-11T22:58:30.802Z,2.50
2017-10-11T23:00:57.814Z,4.23
2017-10-11T23:03:23.955Z,2.97
2017-10-11T23:05:50.073Z,2.83
2017-10-11T23:08:19.195Z,3.90
2017-10-11T23:10:46.046Z,2.60
2017-10-11T23:13:13.964Z,4.03
2017-10-11T23:15:40.084Z,3.17
2017-10-11T23:18:06.943Z,5.13
2017-10-11T23:20:33.094Z,2.33
2017-10-11T23:22:59.966Z,2.70
2017-10-11T23:25:26.833Z,2.70
2017-10-11T23:27:52.958Z,2.93
2017-10-11T23:30:19.091Z,3.90
2017-10-11T23:32:45.233Z,2.50
2017-10-11T23:35:11.382Z,4.57
2017-10-11T23:37:37.504Z,2.80
2017-10-11T23:40:03.640Z,7.30
2017-10-11T23:42:31.405Z,3.70
2017-10-11T23:44:57.516Z,3.57
2017-10-11T23:47:23.638Z,2.20
2017-10-11T23:49:49.760Z,3.93
2017-10-11T23:52:15.877Z,2.27
2017-10-11T23:54:48.320Z,2.83
2017-10-11T23:57:14.497Z,4.87
2017-10-11T23:59:44.460Z,2.47
